Time,TemperatureF,DewpointF,PressureIn,WindDirection,WindDirectionDegrees,WindSpeedMPH,WindSpeedGustMPH,Humidity,HourlyPrecipIn,Conditions,Clouds,dailyrainin,SoftwareType,DateUTC
2013-01-10 05:55:00,26.9,24.4,30.53,ENE,65,0.0,0.0,90,0.00,,,0.00,Wunderground v.1.15,2013-01-10 11:55:00,
2013-01-10 06:00:00,26.7,24.2,30.52,ENE,65,0.0,0.0,90,0.00,,,0.00,Wunderground v.1.15,2013-01-10 12:00:00,
2013-01-10 06:10:00,26.9,24.6,30.53,ENE,67,0.0,0.0,91,0.00,,,0.00,Wunderground v.1.15,2013-01-10 12:10:00,
2013-01-10 06:15:00,26.9,24.4,30.53,ENE,66,0.0,0.0,90,0.00,,,0.00,Wunderground v.1.15,2013-01-10 12:15:00,
2013-01-10 06:20:00,26.6,24.1,30.53,ENE,67,0.0,0.0,90,0.00,,,0.00,Wunderground v.1.15,2013-01-10 12:20:00,
2013-01-10 06:25:00,26.4,23.9,30.53,ENE,65,0.0,0.0,90,0.00,,,0.00,Wunderground v.1.15,2013-01-10 12:25:00,
2013-01-10 06:35:00,25.9,23.4,30.53,ENE,66,0.0,0.0,90,0.00,,,0.00,Wunderground v.1.15,2013-01-10 12:35:00,
2013-01-10 06:40:00,26.1,24.1,30.52,ENE,66,0.0,0.0,92,0.00,,,0.00,Wunderground v.1.15,2013-01-10 12:40:00,
2013-01-10 06:50:00,26.5,24.2,30.52,ENE,65,0.0,3.0,91,0.00,,,0.00,Wunderground v.1.15,2013-01-10 12:50:00,
2013-01-10 06:55:00,27.3,24.8,30.52,ENE,65,1.0,3.0,90,0.00,,,0.00,Wunderground v.1.15,2013-01-10 12:55:00,
2013-01-10 07:00:00,27.8,24.7,30.52,ENE,69,2.0,2.0,88,0.00,,,0.00,Wunderground v.1.15,2013-01-10 13:00:00,
2013-01-10 07:10:00,28.6,24.9,30.51,East,79,1.0,1.0,86,0.00,,,0.00,Wunderground v.1.15,2013-01-10 13:10:00,
2013-01-10 07:15:00,28.7,25.0,30.50,East,79,2.0,2.0,86,0.00,,,0.00,Wunderground v.1.15,2013-01-10 13:15:00,
2013-01-10 07:25:00,28.9,25.0,30.50,ENE,71,2.0,2.0,85,0.00,,,0.00,Wunderground v.1.15,2013-01-10 13:25:00,
2013-01-10 07:35:00,29.0,24.8,30.50,ENE,73,2.0,3.0,84,0.00,,,0.00,Wunderground v.1.15,2013-01-10 13:35:00,
2013-01-10 07:40:00,29.3,25.1,30.50,ENE,76,3.0,3.0,84,0.00,,,0.00,Wunderground v.1.15,2013-01-10 13:40:00,
2013-01-10 07:50:00,30.0,24.9,30.49,ENE,76,3.0,3.0,81,0.00,,,0.00,Wunderground v.1.15,2013-01-10 13:50:00,
2013-01-10 08:00:00,30.2,25.1,30.49,ENE,78,2.0,2.0,81,0.00,,,0.00,Wunderground v.1.15,2013-01-10 14:00:00,
2013-01-10 08:10:00,30.4,25.6,30.49,ENE,71,3.0,4.0,82,0.00,,,0.00,Wunderground v.1.15,2013-01-10 14:10:00,
2013-01-10 08:15:00,30.6,25.8,30.49,ENE,74,3.0,4.0,82,0.00,,,0.00,Wunderground v.1.15,2013-01-10 14:15:00,
2013-01-10 08:25:00,31.6,26.4,30.48,East,98,2.0,2.0,81,0.00,,,0.00,Wunderground v.1.15,2013-01-10 14:25:00,
2013-01-10 08:35:00,32.5,26.7,30.48,ENE,77,2.0,3.0,79,0.00,,,0.00,Wunderground v.1.15,2013-01-10 14:35:00,
2013-01-10 08:40:00,32.8,27.0,30.47,ENE,78,3.0,4.0,79,0.00,,,0.00,Wunderground v.1.15,2013-01-10 14:40:00,
2013-01-10 08:50:00,33.1,27.6,30.47,East,80,1.0,1.0,80,0.00,,,0.00,Wunderground v.1.15,2013-01-10 14:50:00,
2013-01-10 09:00:00,33.7,27.3,30.47,East,87,1.0,1.0,77,0.00,,,0.00,Wunderground v.1.15,2013-01-10 15:00:00,
2013-01-10 09:10:00,34.1,27.3,30.46,East,84,2.0,3.0,76,0.00,,,0.00,Wunderground v.1.15,2013-01-10 15:10:00,
2013-01-10 09:20:00,34.7,27.6,30.45,East,89,2.0,2.0,75,0.00,,,0.00,Wunderground v.1.15,2013-01-10 15:20:00,
2013-01-10 09:25:00,34.8,28.0,30.45,East,80,2.0,4.0,76,0.00,,,0.00,Wunderground v.1.15,2013-01-10 15:25:00,
2013-01-10 09:35:00,35.2,27.4,30.45,ENE,77,4.0,4.0,73,0.00,,,0.00,Wunderground v.1.15,2013-01-10 15:35:00,
2013-01-10 09:45:00,35.6,27.8,30.44,ENE,73,4.0,5.0,73,0.00,,,0.00,Wunderground v.1.15,2013-01-10 15:45:00,
2013-01-10 09:55:00,35.9,28.1,30.44,East,84,1.0,2.0,73,0.00,,,0.00,Wunderground v.1.15,2013-01-10 15:55:00,
2013-01-10 10:00:00,36.2,28.7,30.43,East,88,0.0,0.0,74,0.00,,,0.00,Wunderground v.1.15,2013-01-10 16:00:00,
2013-01-10 10:10:00,36.7,28.9,30.43,East,83,0.0,0.0,73,0.00,,,0.00,Wunderground v.1.15,2013-01-10 16:10:00,
2013-01-10 10:15:00,37.1,27.9,30.42,East,87,1.0,2.0,69,0.00,,,0.00,Wunderground v.1.15,2013-01-10 16:15:00,
2013-01-10 10:25:00,37.7,28.1,30.41,East,96,1.0,2.0,68,0.00,,,0.00,Wunderground v.1.15,2013-01-10 16:25:00,
2013-01-10 10:35:00,38.1,28.1,30.41,East,84,1.0,2.0,67,0.00,,,0.00,Wunderground v.1.15,2013-01-10 16:35:00,
2013-01-10 10:45:00,38.5,27.4,30.40,East,90,2.0,3.0,64,0.00,,,0.00,Wunderground v.1.15,2013-01-10 16:45:00,
2013-01-10 10:55:00,38.9,27.4,30.39,East,98,2.0,3.0,63,0.00,,,0.00,Wunderground v.1.15,2013-01-10 16:55:00,
2013-01-10 11:00:00,39.2,28.0,30.38,ESE,102,2.0,2.0,64,0.00,,,0.00,Wunderground v.1.15,2013-01-10 17:00:00,
2013-01-10 11:10:00,40.0,28.4,30.37,East,81,1.0,2.0,63,0.00,,,0.00,Wunderground v.1.15,2013-01-10 17:10:00,
2013-01-10 11:20:00,40.6,28.6,30.36,East,96,1.0,2.0,62,0.00,,,0.00,Wunderground v.1.15,2013-01-10 17:20:00,
2013-01-10 11:30:00,41.2,28.4,30.35,East,84,2.0,2.0,60,0.00,,,0.00,Wunderground v.1.15,2013-01-10 17:30:00,
2013-01-10 11:35:00,41.3,27.6,30.35,ENE,77,2.0,2.0,58,0.00,,,0.00,Wunderground v.1.15,2013-01-10 17:35:00,
2013-01-10 11:45:00,41.5,27.8,30.34,ESE,102,2.0,2.0,58,0.00,,,0.00,Wunderground v.1.15,2013-01-10 17:45:00,
2013-01-10 11:55:00,41.6,27.9,30.32,ESE,102,2.0,2.0,58,0.00,,,0.00,Wunderground v.1.15,2013-01-10 17:55:00,
2013-01-10 12:00:00,41.6,28.3,30.32,East,84,2.0,3.0,59,0.00,,,0.00,Wunderground v.1.15,2013-01-10 18:00:00,
2013-01-10 12:10:00,40.9,29.7,30.31,East,93,2.0,2.0,64,0.00,,,0.00,Wunderground v.1.15,2013-01-10 18:10:00,
2013-01-10 12:15:00,40.8,29.2,30.30,East,79,2.0,2.0,63,0.00,,,0.00,Wunderground v.1.15,2013-01-10 18:15:00,
2013-01-10 12:20:00,40.9,29.7,30.30,East,87,2.0,2.0,64,0.00,,,0.00,Wunderground v.1.15,2013-01-10 18:20:00,
2013-01-10 12:30:00,41.0,29.7,30.28,East,82,2.0,2.0,64,0.00,,,0.00,Wunderground v.1.15,2013-01-10 18:30:00,
2013-01-10 12:40:00,41.3,30.0,30.28,ESE,102,2.0,2.0,64,0.00,,,0.00,Wunderground v.1.15,2013-01-10 18:40:00,
2013-01-10 12:45:00,41.6,29.9,30.27,East,93,2.0,2.0,63,0.00,,,0.00,Wunderground v.1.15,2013-01-10 18:45:00,
2013-01-10 12:55:00,42.4,30.7,30.26,ESE,117,1.0,2.0,63,0.00,,,0.00,Wunderground v.1.15,2013-01-10 18:55:00,
2013-01-10 13:00:00,42.8,30.7,30.26,East,86,2.0,2.0,62,0.00,,,0.00,Wunderground v.1.15,2013-01-10 19:00:00,
2013-01-10 13:10:00,43.2,31.1,30.25,ESE,113,2.0,2.0,62,0.00,,,0.00,Wunderground v.1.15,2013-01-10 19:10:00,
2013-01-10 13:15:00,43.4,31.2,30.24,ESE,104,2.0,2.0,62,0.00,,,0.00,Wunderground v.1.15,2013-01-10 19:15:00,
2013-01-10 13:25:00,43.5,31.3,30.24,East,98,1.0,1.0,62,0.00,,,0.00,Wunderground v.1.15,2013-01-10 19:25:00,
2013-01-10 13:30:00,43.5,31.3,30.23,East,98,1.0,3.0,62,0.00,,,0.00,Wunderground v.1.15,2013-01-10 19:30:00,
2013-01-10 13:40:00,43.5,32.1,30.23,East,82,1.0,2.0,64,0.00,,,0.00,Wunderground v.1.15,2013-01-10 19:40:00,
2013-01-10 13:50:00,42.6,34.5,30.23,SE,139,1.0,3.0,73,0.00,,,0.00,Wunderground v.1.15,2013-01-10 19:50:00,
2013-01-10 13:55:00,41.7,35.7,30.23,ESE,105,2.0,3.0,79,0.00,,,0.00,Wunderground v.1.15,2013-01-10 19:55:00,
2013-01-10 14:00:00,41.1,36.3,30.23,ESE,110,2.0,2.0,83,0.00,,,0.00,Wunderground v.1.15,2013-01-10 20:00:00,
2013-01-10 14:10:00,40.0,36.7,30.22,East,100,1.0,1.0,88,0.13,,,0.02,Wunderground v.1.15,2013-01-10 20:10:00,
2013-01-10 14:20:00,39.3,36.9,30.22,East,98,0.0,1.0,91,0.07,,,0.03,Wunderground v.1.15,2013-01-10 20:20:00,
2013-01-10 14:30:00,38.8,36.7,30.21,East,91,1.0,1.0,92,0.05,,,0.04,Wunderground v.1.15,2013-01-10 20:30:00,
2013-01-10 14:40:00,38.3,36.5,30.21,ESE,107,1.0,1.0,93,0.07,,,0.05,Wunderground v.1.15,2013-01-10 20:40:00,
2013-01-10 14:50:00,38.1,36.5,30.21,SE,125,1.0,1.0,94,0.06,,,0.06,Wunderground v.1.15,2013-01-10 20:50:00,
2013-01-10 14:55:00,38.1,36.8,30.21,ESE,107,1.0,1.0,95,0.04,,,0.06,Wunderground v.1.15,2013-01-10 20:55:00,
2013-01-10 15:00:00,38.1,36.8,30.21,ESE,113,0.0,0.0,95,0.00,,,0.06,Wunderground v.1.15,2013-01-10 21:00:00,
2013-01-10 15:15:00,38.1,36.8,30.20,East,84,0.0,1.0,95,0.00,,,0.06,Wunderground v.1.15,2013-01-10 21:15:00,
2013-01-10 15:25:00,38.3,37.3,30.20,ESE,113,1.0,1.0,96,0.00,,,0.06,Wunderground v.1.15,2013-01-10 21:25:00,
2013-01-10 15:35:00,38.6,37.6,30.20,SSE,148,1.0,5.0,96,0.00,,,0.06,Wunderground v.1.15,2013-01-10 21:35:00,
2013-01-10 15:40:00,38.9,37.9,30.20,SE,124,2.0,2.0,96,0.00,,,0.07,Wunderground v.1.15,2013-01-10 21:40:00,
2013-01-10 15:50:00,39.1,38.1,30.19,ENE,58,2.0,5.0,96,0.00,,,0.07,Wunderground v.1.15,2013-01-10 21:50:00,
2013-01-10 16:00:00,38.9,37.9,30.19,SE,131,2.0,2.0,96,0.00,,,0.07,Wunderground v.1.15,2013-01-10 22:00:00,
2013-01-10 16:10:00,39.0,38.0,30.18,ESE,107,2.0,2.0,96,0.00,,,0.08,Wunderground v.1.15,2013-01-10 22:10:00,
2013-01-10 16:20:00,39.1,38.1,30.17,SE,126,3.0,3.0,96,0.00,,,0.08,Wunderground v.1.15,2013-01-10 22:20:00,
2013-01-10 16:30:00,38.9,37.9,30.16,ENE,60,2.0,2.0,96,0.00,,,0.08,Wunderground v.1.15,2013-01-10 22:30:00,
2013-01-10 16:40:00,38.8,37.8,30.15,East,100,1.0,1.0,96,0.00,,,0.08,Wunderground v.1.15,2013-01-10 22:40:00,
2013-01-10 16:45:00,38.7,37.7,30.15,ESE,120,1.0,2.0,96,0.00,,,0.08,Wunderground v.1.15,2013-01-10 22:45:00,
2013-01-10 16:50:00,38.7,37.7,30.15,SE,137,1.0,1.0,96,0.00,,,0.08,Wunderground v.1.15,2013-01-10 22:50:00,
2013-01-10 17:00:00,38.7,37.7,30.15,SE,128,1.0,1.0,96,0.00,,,0.08,Wunderground v.1.15,2013-01-10 23:00:00,
2013-01-10 17:10:00,38.7,37.9,30.14,SE,136,1.0,1.0,97,0.00,,,0.08,Wunderground v.1.15,2013-01-10 23:10:00,
2013-01-10 17:15:00,38.8,38.0,30.14,ESE,110,1.0,1.0,97,0.00,,,0.08,Wunderground v.1.15,2013-01-10 23:15:00,
2013-01-10 17:20:00,38.8,38.0,30.14,East,89,1.0,2.0,97,0.00,,,0.08,Wunderground v.1.15,2013-01-10 23:20:00,
2013-01-10 17:25:00,38.8,38.0,30.13,East,83,1.0,2.0,97,0.00,,,0.08,Wunderground v.1.15,2013-01-10 23:25:00,
2013-01-10 17:35:00,38.9,38.1,30.12,ESE,105,0.0,1.0,97,0.00,,,0.08,Wunderground v.1.15,2013-01-10 23:35:00,
2013-01-10 17:45:00,39.1,38.3,30.12,East,91,1.0,4.0,97,0.00,,,0.08,Wunderground v.1.15,2013-01-10 23:45:00,
2013-01-10 17:50:00,39.2,38.4,30.12,ESE,122,1.0,1.0,97,0.00,,,0.08,Wunderground v.1.15,2013-01-10 23:50:00,
2013-01-10 17:55:00,39.2,38.4,30.11,ESE,105,1.0,1.0,97,0.00,,,0.08,Wunderground v.1.15,2013-01-10 23:55:00,
2013-01-10 18:00:00,39.4,38.6,30.11,ESE,109,1.0,1.0,97,0.00,,,0.08,Wunderground v.1.15,2013-01-11 00:00:00,
2013-01-10 18:10:00,39.6,38.8,30.10,SE,138,1.0,1.0,97,0.00,,,0.08,Wunderground v.1.15,2013-01-11 00:10:00,
2013-01-10 18:15:00,39.6,38.8,30.10,ESE,105,1.0,1.0,97,0.00,,,0.08,Wunderground v.1.15,2013-01-11 00:15:00,
2013-01-10 18:20:00,39.7,38.9,30.10,ENE,68,1.0,1.0,97,0.00,,,0.09,Wunderground v.1.15,2013-01-11 00:20:00,
2013-01-10 18:30:00,39.9,39.1,30.09,ESE,108,1.0,1.0,97,0.00,,,0.09,Wunderground v.1.15,2013-01-11 00:30:00,
2013-01-10 18:40:00,39.9,39.1,30.09,ESE,104,0.0,0.0,97,0.00,,,0.10,Wunderground v.1.15,2013-01-11 00:40:00,
2013-01-10 18:45:00,40.0,39.2,30.09,WNW,290,0.0,0.0,97,0.00,,,0.10,Wunderground v.1.15,2013-01-11 00:45:00,
2013-01-10 18:55:00,40.2,39.4,30.07,East,86,0.0,1.0,97,0.23,,,0.14,Wunderground v.1.15,2013-01-11 00:55:00,
2013-01-10 19:00:00,40.4,39.9,30.07,East,98,1.0,1.0,98,0.10,,,0.15,Wunderground v.1.15,2013-01-11 01:00:00,
2013-01-10 19:10:00,40.5,40.0,30.07,ESE,107,0.0,0.0,98,0.07,,,0.16,Wunderground v.1.15,2013-01-11 01:10:00,
2013-01-10 19:20:00,40.7,40.2,30.05,ESE,102,0.0,1.0,98,0.14,,,0.18,Wunderground v.1.15,2013-01-11 01:20:00,
2013-01-10 19:25:00,40.9,40.4,30.05,East,98,1.0,1.0,98,0.09,,,0.19,Wunderground v.1.15,2013-01-11 01:25:00,
2013-01-10 19:30:00,41.1,40.6,30.05,ESE,110,1.0,1.0,98,0.24,,,0.21,Wunderground v.1.15,2013-01-11 01:30:00,
2013-01-10 19:40:00,41.4,40.9,30.06,ESE,117,0.0,2.0,98,0.28,,,0.26,Wunderground v.1.15,2013-01-11 01:40:00,
2013-01-10 19:50:00,41.6,41.1,30.05,SE,136,1.0,1.0,98,0.27,,,0.33,Wunderground v.1.15,2013-01-11 01:50:00,
2013-01-10 19:55:00,41.6,41.1,30.05,ESE,123,1.0,2.0,98,0.22,,,0.35,Wunderground v.1.15,2013-01-11 01:55:00,
2013-01-10 20:00:00,41.7,41.2,30.05,SE,126,1.0,1.0,98,0.64,,,0.39,Wunderground v.1.15,2013-01-11 02:00:00,
2013-01-10 20:10:00,41.9,41.4,30.04,SSE,162,1.0,1.0,98,0.14,,,0.42,Wunderground v.1.15,2013-01-11 02:10:00,
2013-01-10 20:15:00,42.0,41.5,30.03,East,98,0.0,1.0,98,0.12,,,0.43,Wunderground v.1.15,2013-01-11 02:15:00,
2013-01-10 20:20:00,42.1,41.6,30.03,ESE,119,0.0,0.0,98,0.06,,,0.43,Wunderground v.1.15,2013-01-11 02:20:00,
2013-01-10 20:25:00,42.1,41.6,30.03,ESE,113,0.0,0.0,98,0.06,,,0.44,Wunderground v.1.15,2013-01-11 02:25:00,
2013-01-10 20:35:00,42.2,41.7,30.03,SE,131,1.0,1.0,98,0.06,,,0.45,Wunderground v.1.15,2013-01-11 02:35:00,
2013-01-10 20:45:00,42.2,41.7,30.03,ESE,120,0.0,1.0,98,0.13,,,0.47,Wunderground v.1.15,2013-01-11 02:45:00,
2013-01-10 20:55:00,42.5,42.0,30.02,SE,128,1.0,2.0,98,0.07,,,0.48,Wunderground v.1.15,2013-01-11 02:55:00,
2013-01-10 21:00:00,42.6,42.1,30.01,South,169,1.0,1.0,98,0.05,,,0.48,Wunderground v.1.15,2013-01-11 03:00:00,
2013-01-10 21:10:00,42.7,42.2,30.01,SE,137,1.0,1.0,98,0.00,,,0.49,Wunderground v.1.15,2013-01-11 03:10:00,
2013-01-10 21:20:00,42.8,42.3,30.00,SE,125,1.0,2.0,98,0.00,,,0.49,Wunderground v.1.15,2013-01-11 03:20:00,
2013-01-10 21:30:00,42.9,42.4,29.99,ESE,120,1.0,2.0,98,0.00,,,0.49,Wunderground v.1.15,2013-01-11 03:30:00,
2013-01-10 21:35:00,43.0,42.5,29.98,ESE,117,1.0,2.0,98,0.00,,,0.49,Wunderground v.1.15,2013-01-11 03:35:00,